createdAt,value
2023-04-15T14:36:05.146Z,1.10
2023-04-15T14:38:33.700Z,1.20
2023-04-15T14:41:01.082Z,1.10
2023-04-15T14:43:27.655Z,0.90
2023-04-15T14:45:55.352Z,0.80
2023-04-15T14:48:22.140Z,1.40
2023-04-15T14:50:48.865Z,0.80
2023-04-15T14:53:16.124Z,0.80
2023-04-15T14:55:43.779Z,1.10
2023-04-15T15:00:19.136Z,0.80
2023-04-15T15:02:50.618Z,1.10
2023-04-15T15:05:18.651Z,1.20
2023-04-15T15:07:47.036Z,1.00
2023-04-15T15:10:14.879Z,1.00
2023-04-15T15:13:42.420Z,1.40
2023-04-15T15:18:48.355Z,0.90
2023-04-15T15:21:16.307Z,1.00
2023-04-15T15:24:03.427Z,0.80
2023-04-15T15:26:31.734Z,0.90
2023-04-15T15:28:59.749Z,1.20
2023-04-15T15:31:27.841Z,0.90
2023-04-15T15:33:55.764Z,1.20
2023-04-15T15:36:23.564Z,0.80
2023-04-15T15:38:52.110Z,0.90
2023-04-15T15:41:19.928Z,1.20
2023-04-15T15:43:47.983Z,1.10
2023-04-15T15:46:16.401Z,1.00
2023-04-15T15:48:44.773Z,0.80
2023-04-15T15:51:12.811Z,1.20
2023-04-15T15:53:40.880Z,0.80
2023-04-15T15:56:08.872Z,0.80
2023-04-15T15:58:37.040Z,0.80
2023-04-15T16:01:06.035Z,0.90
2023-04-15T16:03:34.318Z,1.10
2023-04-15T16:06:02.419Z,0.70
2023-04-15T16:08:30.753Z,1.10
2023-04-15T16:10:58.725Z,0.60
2023-04-15T16:13:26.575Z,1.00
2023-04-15T16:15:54.586Z,0.90
2023-04-15T16:18:22.528Z,1.10
2023-04-15T16:20:50.476Z,1.00
2023-04-15T16:23:19.619Z,1.20
2023-04-15T16:25:48.376Z,1.00
2023-04-15T16:28:25.714Z,0.70
2023-04-15T16:30:56.295Z,1.20
2023-04-15T16:33:24.371Z,1.20
2023-04-15T16:35:52.548Z,1.40
2023-04-15T16:38:20.932Z,1.10
2023-04-15T16:40:48.792Z,0.70
2023-04-15T16:43:16.894Z,1.40
2023-04-15T16:45:45.581Z,1.20
2023-04-15T16:48:13.824Z,1.10
2023-04-15T16:50:41.823Z,1.20
2023-04-15T16:53:10.485Z,1.10
2023-04-15T16:55:39.840Z,0.90
2023-04-15T16:58:08.529Z,1.00
2023-04-15T17:00:37.162Z,0.90
2023-04-15T17:03:06.405Z,0.90
2023-04-15T17:05:34.795Z,0.70
2023-04-15T17:08:02.775Z,1.20
2023-04-15T17:10:31.476Z,1.00
2023-04-15T17:13:00.160Z,1.10
2023-04-15T17:15:28.509Z,1.40
2023-04-15T18:20:36.475Z,1.20
2023-04-15T18:23:04.503Z,1.50
2023-04-15T18:25:34.067Z,1.00
2023-04-15T18:28:02.040Z,1.30
2023-04-15T18:30:29.928Z,1.20
2023-04-15T18:32:57.823Z,1.00
2023-04-15T18:35:25.942Z,1.00
2023-04-15T18:37:53.926Z,0.90
2023-04-15T18:40:21.733Z,1.00
2023-04-15T18:42:49.964Z,1.20
2023-04-15T18:56:45.052Z,1.20
2023-04-15T18:59:28.418Z,1.00
2023-04-15T19:01:59.284Z,1.00
2023-04-15T19:04:29.441Z,1.60
2023-04-15T19:06:59.011Z,1.20
2023-04-15T19:09:28.994Z,1.30
2023-04-15T19:13:49.376Z,1.40
2023-04-15T19:16:17.565Z,1.40
2023-04-15T19:18:45.797Z,1.80
2023-04-15T19:21:14.176Z,1.50
2023-04-15T19:23:45.601Z,1.50
2023-04-15T19:26:13.671Z,1.30
2023-04-15T19:28:41.873Z,1.30
2023-04-15T19:31:09.899Z,2.00
2023-04-15T19:33:38.444Z,1.70
2023-04-15T19:36:07.453Z,1.60
2023-04-15T19:38:36.176Z,1.60
2023-04-15T19:41:04.399Z,1.70
2023-04-15T19:43:32.990Z,1.80
2023-04-15T19:46:01.175Z,2.10
2023-04-15T19:48:29.428Z,2.30
2023-04-15T19:50:57.890Z,2.50
2023-04-15T19:53:25.875Z,2.50
2023-04-15T19:55:53.840Z,2.50
2023-04-15T19:58:21.893Z,2.80
2023-04-15T20:00:49.800Z,2.90
2023-04-15T20:03:19.015Z,2.20
2023-04-15T20:05:47.213Z,2.90
2023-04-15T20:08:15.529Z,2.70
2023-04-15T20:10:43.496Z,2.40
2023-04-15T20:13:11.348Z,2.70
2023-04-15T20:15:39.349Z,2.60
2023-04-15T20:18:07.705Z,2.20
2023-04-15T20:20:35.881Z,2.60
2023-04-15T20:23:03.714Z,2.80
2023-04-15T20:25:31.818Z,2.50
2023-04-15T20:28:00.957Z,2.70
2023-04-15T20:30:29.497Z,3.00
2023-04-15T20:32:57.668Z,2.70
2023-04-15T20:35:28.224Z,2.60
2023-04-15T20:37:56.464Z,3.00
2023-04-15T20:40:24.332Z,3.20
2023-04-15T20:42:52.621Z,2.30
2023-04-15T20:45:20.687Z,2.40
2023-04-15T20:47:48.990Z,2.60
2023-04-15T20:50:17.660Z,2.60
2023-04-15T20:52:45.728Z,2.60
2023-04-15T20:55:13.635Z,3.00
2023-04-15T20:57:41.767Z,2.30
2023-04-15T21:00:11.288Z,2.20
2023-04-15T21:02:39.426Z,2.00
2023-04-15T21:05:08.448Z,2.70
2023-04-15T21:07:36.514Z,2.40
2023-04-15T21:10:04.891Z,2.80
2023-04-15T21:12:32.950Z,2.00
2023-04-15T21:15:01.740Z,2.00
2023-04-15T21:17:29.654Z,2.50
2023-04-15T21:19:57.814Z,3.00
2023-04-15T21:22:26.354Z,2.10
2023-04-15T21:24:54.755Z,2.20
2023-04-15T21:27:22.833Z,2.70
2023-04-15T21:29:50.795Z,2.10
2023-04-15T21:32:18.967Z,2.00
2023-04-15T21:34:47.558Z,2.60
2023-04-15T21:37:16.033Z,2.20
2023-04-15T21:39:44.213Z,1.90
2023-04-15T21:42:12.224Z,2.70
2023-04-15T21:44:40.151Z,2.40
2023-04-15T21:47:08.100Z,1.80
2023-04-15T21:49:36.494Z,2.10
2023-04-15T21:52:04.964Z,2.00
2023-04-15T21:54:33.568Z,2.10
2023-04-15T21:57:02.061Z,2.50
2023-04-15T21:59:30.337Z,2.10
2023-04-15T22:01:58.630Z,2.00
2023-04-15T22:04:26.957Z,2.10
2023-04-15T22:06:55.942Z,2.00
2023-04-15T22:09:23.932Z,2.30
2023-04-15T22:11:51.901Z,1.80
2023-04-15T22:14:19.778Z,1.80
2023-04-15T22:16:47.772Z,2.10
2023-04-15T22:19:15.740Z,1.90
2023-04-15T22:21:43.967Z,1.80
2023-04-15T22:24:32.533Z,2.30
2023-04-15T22:27:00.746Z,2.10
2023-04-15T22:29:28.987Z,1.90
2023-04-15T22:31:57.054Z,2.00
2023-04-15T22:34:25.227Z,1.40
2023-04-15T22:36:53.269Z,1.80
2023-04-15T22:39:21.367Z,2.00
2023-04-15T22:41:49.956Z,1.60
2023-04-15T22:44:18.127Z,1.90
2023-04-15T22:46:46.105Z,1.50
2023-04-15T22:49:14.066Z,2.10
2023-04-15T22:51:42.035Z,1.80
2023-04-15T22:54:10.038Z,1.40
2023-04-15T22:56:38.073Z,1.50
2023-04-15T22:59:06.051Z,1.70
2023-04-15T23:01:34.136Z,1.90
2023-04-15T23:04:05.648Z,1.60
2023-04-15T23:06:35.185Z,1.60
2023-04-15T23:09:03.619Z,1.60
2023-04-15T23:11:31.755Z,1.70
2023-04-15T23:14:00.388Z,1.40
2023-04-15T23:16:28.745Z,1.70
2023-04-15T23:18:56.735Z,1.40
2023-04-15T23:21:26.157Z,1.50
2023-04-15T23:23:54.468Z,1.30
2023-04-15T23:26:22.384Z,1.30
2023-04-15T23:28:50.383Z,1.50
2023-04-15T23:31:18.456Z,1.30
2023-04-15T23:33:46.300Z,1.30
2023-04-15T23:36:14.498Z,1.40
2023-04-15T23:38:42.464Z,1.60
2023-04-15T23:41:11.997Z,1.50
2023-04-15T23:43:40.137Z,1.30
2023-04-15T23:46:08.723Z,1.40
2023-04-15T23:48:36.694Z,1.50
2023-04-15T23:51:05.375Z,1.60
2023-04-15T23:53:33.650Z,1.50
2023-04-15T23:56:01.746Z,1.50
2023-04-15T23:58:29.639Z,1.90
